Nearby METAR Reports

 

KSJC - San Jose, California, USA
Distance from station: NE 9mi, 14km
Updated: Wed, 20-Mar-2019 4:53pm PDT
Mostly cloudy
Mostly cloudy
 Wind from varies
Wind: varies 5 mph , 7 km/h
Temperature: 63°F , 17°C
Dew Point: 45°F , 7°C
Humidity: 52%
Barometer: 30.01 inHg , 1016.3 hPa
Clouds: Mostly cloudy
Visibility: 8 miles , 13 km
Cloud details: Few Clouds 1900 ft
Partly cloudy 3000 ft
Mostly cloudy 5000 ft
2019/03/20 23:53 KSJC 202353Z VRB04KT 8SM FEW019 SCT030 BKN050 17/07 A3001 RMK AO2 SLP160 60001 T01720067 10178 20128 56007
KNUQ - Moffett Nas/Mtn, California, USA
Distance from station: N 9mi, 14km
Updated: Wed, 20-Mar-2019 4:56pm PDT
Clear
Clear
 Wind from WNW
Wind: WNW 13 mph , 20 km/h, Gust: 18 mph , 30 km/h
Temperature: 63°F , 17°C
Dew Point: 43°F , 6°C
Humidity: 49%
Barometer: 30.02 inHg , 1016.6 hPa
Clouds: Clear
Visibility: 10 miles , 16 km
2019/03/20 23:56 KNUQ 202356Z 29011G16KT 10SM CLR 17/06 A3002 RMK AO2 SLP169 T01670061 10172 20133 55006
 
KPAO - Palo Alto, California, USA
Distance from station: NNW 14mi, 23km
Updated: Wed, 20-Mar-2019 3:47pm PDT
NOT Current
Partly cloudy
Partly cloudy
 Wind from W
Wind: W 13 mph , 20 km/h
Temperature: 63°F , 17°C
Dew Point: 43°F , 6°C
Humidity: 49%
Barometer: 30.02 inHg , 1016.6 hPa
Clouds: Partly cloudy
Visibility: 10 miles , 16 km
Cloud details: Partly cloudy 3500 ft
2019/03/20 22:47 KPAO 202247Z 28011KT 10SM SCT035 17/06 A3002
KRHV - San Jose/Reid, California, USA
Distance from station: ENE 12mi, 19km
Updated: Wed, 20-Mar-2019 4:47pm PDT
Mostly cloudy
Mostly cloudy
 Wind from NNW
Wind: NNW 7 mph , 11 km/h
Temperature: 64°F , 18°C
Dew Point: 41°F , 5°C
Humidity: 43%
Barometer: 29.99 inHg , 1015.6 hPa
Clouds: Mostly cloudy
Visibility: 10 miles , 16 km
Cloud details: Mostly cloudy 4000 ft
2019/03/20 23:47 KRHV 202347Z 34006KT 10SM BKN040 18/05 A2999
 
KOAK - Oakland, California, USA
Distance from station: NNW 31mi, 50km
Updated: Wed, 20-Mar-2019 4:53pm PDT
Partly cloudy
Partly cloudy
 Wind from W
Wind: W 12 mph , 19 km/h
Temperature: 59°F , 15°C
Dew Point: 45°F , 7°C
Humidity: 59%
Barometer: 30.04 inHg , 1017.3 hPa
Clouds: Partly cloudy
Visibility: 10 miles , 16 km
Cloud details: Few Clouds 2500 ft
Few Clouds 3500 ft
Partly cloudy 18000 ft
2019/03/20 23:53 KOAK 202353Z 27010KT 10SM FEW025 FEW035 SCT180 15/07 A3004 RMK AO2 SLP173 T01500067 10167 20133 55002
KSQL - San Carlos Airpo, California, USA
Distance from station: NW 21mi, 34km
Updated: Wed, 20-Mar-2019 5:47pm PDT
Partly cloudy
Partly cloudy
 Wind from W
Wind: W 8 mph , 13 km/h
Temperature: 57°F , 14°C
Dew Point: 45°F , 7°C
Humidity: 63%
Barometer: 30.04 inHg , 1017.3 hPa
Clouds: Partly cloudy
Visibility: 10 miles , 16 km
Cloud details: Partly cloudy 3000 ft
2019/03/21 00:47 KSQL 210047Z 26007KT 10SM SCT030 14/07 A3004
 
KSFO - San Francisco, California, USA
Distance from station: NW 30mi, 49km
Updated: Wed, 20-Mar-2019 4:56pm PDT
Mostly cloudy
Mostly cloudy
 Wind from W
Wind: W 12 mph , 19 km/h
Temperature: 57°F , 14°C
Dew Point: 43°F , 6°C
Humidity: 59%
Barometer: 30.03 inHg , 1016.9 hPa
Clouds: Mostly cloudy
Visibility: 10 miles , 16 km
Cloud details: Few Clouds 2500 ft
Partly cloudy 4100 ft
Mostly cloudy 18000 ft
2019/03/20 23:56 KSFO 202356Z 27010KT 10SM FEW025 SCT041 BKN180 14/06 A3003 RMK AO2 SLP168 T01440061 10167 20128 55001
KE16 - San Martin, California, USA
Distance from station: ESE 27mi, 43km
Updated: Wed, 20-Mar-2019 5:15pm PDT
Clear
Clear
 Wind from SSW
Wind: SSW 14 mph , 22 km/h
Temperature: 59°F , 15°C
Dew Point: 41°F , 5°C
Humidity: 51%
Barometer: 30.04 inHg , 1017.3 hPa
Clouds: Clear
Visibility: 10 miles , 16 km
2019/03/21 00:15 KE16 210015Z AUTO 21012KT 10SM CLR 15/05 A3004 RMK AO2
 
KWVI - Watsonville, California, USA
Distance from station: SSE 27mi, 44km
Updated: Wed, 20-Mar-2019 4:53pm PDT
Clear
Clear
 Wind from WSW
Wind: WSW 12 mph , 19 km/h
Temperature: 57°F , 14°C
Dew Point: 46°F , 8°C
Humidity: 67%
Barometer: 30.05 inHg , 1017.6 hPa
Clouds: Clear
Visibility: 10 miles , 16 km
2019/03/20 23:53 KWVI 202353Z AUTO 25010KT 10SM CLR 14/08 A3005 RMK AO2 SLP175 60000 T01390083 10156 20128 55004
KHAF - Half Moon Bay, California, USA
Distance from station: WNW 31mi, 50km
Updated: Wed, 20-Mar-2019 5:35pm PDT
Haze, Clear
Haze, Clear
 Wind from WSW
Wind: WSW 8 mph , 13 km/h
Temperature: 55°F , 13°C
Dew Point: 48°F , 9°C
Humidity: 77%
Barometer: 30.05 inHg , 1017.6 hPa
Summary: Haze
Clouds: Clear
Visibility: 6 miles , 10 km
2019/03/21 00:35 KHAF 210035Z AUTO 25007KT 6SM HZ CLR 13/09 A3005 RMK AO2
 
KHWD - Hayward, California, USA
Distance from station: N 28mi, 44km
Updated: Wed, 20-Mar-2019 4:54pm PDT
Few Clouds
Few Clouds
 Wind from WNW
Wind: WNW 14 mph , 22 km/h
Temperature: 63°F , 17°C
Dew Point: 45°F , 7°C
Humidity: 52%
Barometer: 30.03 inHg , 1016.9 hPa
Clouds: Few Clouds
Visibility: 10 miles , 16 km
Cloud details: Few Clouds 4000 ft
2019/03/20 23:54 KHWD 202354Z 29012KT 10SM FEW040 17/07 A3003 RMK AO2 SLP180 6//// T01720067 10189 20139 55003
KLVK - Livermore, California, USA
Distance from station: NNE 31mi, 51km
Updated: Wed, 20-Mar-2019 4:53pm PDT
Light rain, Few clouds
Light rain, Few clouds
 Wind from W
Wind: W 16 mph , 26 km/h
Temperature: 57°F , 14°C
Dew Point: 43°F , 6°C
Humidity: 59%
Barometer: 30.01 inHg , 1016.3 hPa
Summary: Light rain
Clouds: Few Clouds
Visibility: 10 miles , 16 km
Cloud details: Few Clouds 5000 ft
2019/03/20 23:53 KLVK 202353Z 27014KT 10SM -RA FEW050 14/06 A3001 RMK AO2 SLP161 P0000 60000 T01440061 10161 20122 55004